sensor_id;sensor_type;location;lat;lon;timestamp;temperature;humidity
72591;SHT31;60625;51.212;5.952;2024-01-06T00:01:44;7.28;90.06
72591;SHT31;60625;51.212;5.952;2024-01-06T00:06:44;7.29;90.10
72591;SHT31;60625;51.212;5.952;2024-01-06T00:11:45;7.31;90.11
72591;SHT31;60625;51.212;5.952;2024-01-06T00:16:45;7.33;90.13
72591;SHT31;60625;51.212;5.952;2024-01-06T00:21:45;7.34;90.20
72591;SHT31;60625;51.212;5.952;2024-01-06T00:26:46;7.34;90.25
72591;SHT31;60625;51.212;5.952;2024-01-06T00:31:47;7.35;90.29
72591;SHT31;60625;51.212;5.952;2024-01-06T00:36:47;7.36;90.29
72591;SHT31;60625;51.212;5.952;2024-01-06T00:41:47;7.38;90.30
72591;SHT31;60625;51.212;5.952;2024-01-06T00:46:48;7.39;90.30
72591;SHT31;60625;51.212;5.952;2024-01-06T00:51:48;7.41;90.31
72591;SHT31;60625;51.212;5.952;2024-01-06T00:56:49;7.42;90.38
72591;SHT31;60625;51.212;5.952;2024-01-06T01:01:49;7.43;90.39
72591;SHT31;60625;51.212;5.952;2024-01-06T01:06:50;7.43;90.38
72591;SHT31;60625;51.212;5.952;2024-01-06T01:11:50;7.44;90.35
72591;SHT31;60625;51.212;5.952;2024-01-06T01:16:51;7.45;90.25
72591;SHT31;60625;51.212;5.952;2024-01-06T01:21:52;7.44;90.14
72591;SHT31;60625;51.212;5.952;2024-01-06T01:26:55;7.44;90.06
72591;SHT31;60625;51.212;5.952;2024-01-06T01:31:56;7.43;90.00
72591;SHT31;60625;51.212;5.952;2024-01-06T01:36:56;7.42;89.96
72591;SHT31;60625;51.212;5.952;2024-01-06T01:41:57;7.42;89.93
72591;SHT31;60625;51.212;5.952;2024-01-06T01:46:57;7.42;89.84
72591;SHT31;60625;51.212;5.952;2024-01-06T01:51:58;7.41;89.76
72591;SHT31;60625;51.212;5.952;2024-01-06T01:56:59;7.40;89.65
72591;SHT31;60625;51.212;5.952;2024-01-06T02:02:01;7.38;89.54
72591;SHT31;60625;51.212;5.952;2024-01-06T02:07:02;7.37;89.38
72591;SHT31;60625;51.212;5.952;2024-01-06T02:12:03;7.36;89.25
72591;SHT31;60625;51.212;5.952;2024-01-06T02:17:04;7.34;89.11
72591;SHT31;60625;51.212;5.952;2024-01-06T02:22:04;7.32;88.94
72591;SHT31;60625;51.212;5.952;2024-01-06T02:27:05;7.30;88.90
72591;SHT31;60625;51.212;5.952;2024-01-06T02:32:05;7.29;88.89
72591;SHT31;60625;51.212;5.952;2024-01-06T02:37:06;7.25;88.64
72591;SHT31;60625;51.212;5.952;2024-01-06T02:42:06;7.20;88.38
72591;SHT31;60625;51.212;5.952;2024-01-06T02:47:07;7.16;88.32
72591;SHT31;60625;51.212;5.952;2024-01-06T02:52:07;7.12;88.10
72591;SHT31;60625;51.212;5.952;2024-01-06T02:57:08;7.09;87.90
72591;SHT31;60625;51.212;5.952;2024-01-06T03:02:08;7.04;87.81
72591;SHT31;60625;51.212;5.952;2024-01-06T03:07:09;6.99;87.86
72591;SHT31;60625;51.212;5.952;2024-01-06T03:12:10;6.95;87.89
72591;SHT31;60625;51.212;5.952;2024-01-06T03:17:11;6.93;87.78
72591;SHT31;60625;51.212;5.952;2024-01-06T03:22:11;6.89;87.73
72591;SHT31;60625;51.212;5.952;2024-01-06T03:27:12;6.87;87.64
72591;SHT31;60625;51.212;5.952;2024-01-06T03:32:12;6.82;87.41
72591;SHT31;60625;51.212;5.952;2024-01-06T03:37:13;6.79;87.35
72591;SHT31;60625;51.212;5.952;2024-01-06T03:42:13;6.77;87.25
72591;SHT31;60625;51.212;5.952;2024-01-06T03:47:14;6.74;87.14
72591;SHT31;60625;51.212;5.952;2024-01-06T03:52:14;6.73;87.04
72591;SHT31;60625;51.212;5.952;2024-01-06T03:57:15;6.72;86.97
72591;SHT31;60625;51.212;5.952;2024-01-06T04:02:16;6.70;86.92
72591;SHT31;60625;51.212;5.952;2024-01-06T04:07:16;6.70;86.89
72591;SHT31;60625;51.212;5.952;2024-01-06T04:12:16;6.66;86.78
72591;SHT31;60625;51.212;5.952;2024-01-06T04:17:17;6.64;86.81
72591;SHT31;60625;51.212;5.952;2024-01-06T04:22:18;6.61;86.83
72591;SHT31;60625;51.212;5.952;2024-01-06T04:27:19;6.58;87.01
72591;SHT31;60625;51.212;5.952;2024-01-06T04:32:19;6.52;86.88
72591;SHT31;60625;51.212;5.952;2024-01-06T04:37:20;6.41;86.26
72591;SHT31;60625;51.212;5.952;2024-01-06T04:42:20;6.29;85.76
72591;SHT31;60625;51.212;5.952;2024-01-06T04:47:22;6.22;85.57
72591;SHT31;60625;51.212;5.952;2024-01-06T04:52:23;6.15;85.51
72591;SHT31;60625;51.212;5.952;2024-01-06T04:57:23;6.09;85.39
72591;SHT31;60625;51.212;5.952;2024-01-06T05:02:24;6.06;85.22
72591;SHT31;60625;51.212;5.952;2024-01-06T05:07:24;6.01;85.01
72591;SHT31;60625;51.212;5.952;2024-01-06T05:12:24;5.95;84.92
72591;SHT31;60625;51.212;5.952;2024-01-06T05:17:25;5.90;84.91
72591;SHT31;60625;51.212;5.952;2024-01-06T05:22:25;5.87;85.04
72591;SHT31;60625;51.212;5.952;2024-01-06T05:27:26;5.85;85.04
72591;SHT31;60625;51.212;5.952;2024-01-06T05:32:26;5.82;85.06
72591;SHT31;60625;51.212;5.952;2024-01-06T05:37:27;5.84;85.07
72591;SHT31;60625;51.212;5.952;2024-01-06T05:42:27;5.83;85.03
72591;SHT31;60625;51.212;5.952;2024-01-06T05:47:27;5.83;85.11
72591;SHT31;60625;51.212;5.952;2024-01-06T05:52:28;5.78;84.93
72591;SHT31;60625;51.212;5.952;2024-01-06T05:57:29;5.74;85.03
72591;SHT31;60625;51.212;5.952;2024-01-06T06:02:30;5.71;85.11
72591;SHT31;60625;51.212;5.952;2024-01-06T06:07:32;5.64;84.66
72591;SHT31;60625;51.212;5.952;2024-01-06T06:12:32;5.55;84.40
72591;SHT31;60625;51.212;5.952;2024-01-06T06:17:33;5.52;84.38
72591;SHT31;60625;51.212;5.952;2024-01-06T06:22:34;5.48;84.13
72591;SHT31;60625;51.212;5.952;2024-01-06T06:27:34;5.44;84.23
72591;SHT31;60625;51.212;5.952;2024-01-06T06:32:35;5.43;84.38
72591;SHT31;60625;51.212;5.952;2024-01-06T06:37:36;5.43;84.43
72591;SHT31;60625;51.212;5.952;2024-01-06T06:42:37;5.42;84.34
72591;SHT31;60625;51.212;5.952;2024-01-06T06:47:37;5.44;84.19
72591;SHT31;60625;51.212;5.952;2024-01-06T06:52:37;5.41;83.63
72591;SHT31;60625;51.212;5.952;2024-01-06T06:57:38;5.41;83.71
72591;SHT31;60625;51.212;5.952;2024-01-06T07:02:39;5.41;83.79
72591;SHT31;60625;51.212;5.952;2024-01-06T07:07:39;5.43;83.71
72591;SHT31;60625;51.212;5.952;2024-01-06T07:12:40;5.42;83.78
72591;SHT31;60625;51.212;5.952;2024-01-06T07:17:40;5.43;83.88
72591;SHT31;60625;51.212;5.952;2024-01-06T07:22:41;5.42;83.89
72591;SHT31;60625;51.212;5.952;2024-01-06T07:27:42;5.43;83.99
72591;SHT31;60625;51.212;5.952;2024-01-06T07:32:42;5.42;83.78
72591;SHT31;60625;51.212;5.952;2024-01-06T07:37:42;5.39;83.61
72591;SHT31;60625;51.212;5.952;2024-01-06T07:42:43;5.37;83.53
72591;SHT31;60625;51.212;5.952;2024-01-06T07:47:44;5.38;83.72
72591;SHT31;60625;51.212;5.952;2024-01-06T07:52:44;5.40;83.75
72591;SHT31;60625;51.212;5.952;2024-01-06T07:57:45;5.42;83.81
72591;SHT31;60625;51.212;5.952;2024-01-06T08:02:46;5.40;83.61
72591;SHT31;60625;51.212;5.952;2024-01-06T08:07:47;5.41;83.65
72591;SHT31;60625;51.212;5.952;2024-01-06T08:12:47;5.40;83.68
72591;SHT31;60625;51.212;5.952;2024-01-06T08:17:48;5.39;83.57
72591;SHT31;60625;51.212;5.952;2024-01-06T08:22:48;5.39;83.71
72591;SHT31;60625;51.212;5.952;2024-01-06T08:27:49;5.36;83.70
72591;SHT31;60625;51.212;5.952;2024-01-06T08:32:50;5.33;83.64
72591;SHT31;60625;51.212;5.952;2024-01-06T08:37:50;5.31;83.68
72591;SHT31;60625;51.212;5.952;2024-01-06T08:42:51;5.29;83.75
72591;SHT31;60625;51.212;5.952;2024-01-06T08:47:51;5.31;83.99
72591;SHT31;60625;51.212;5.952;2024-01-06T08:52:52;5.30;83.90
72591;SHT31;60625;51.212;5.952;2024-01-06T08:57:52;5.30;84.04
72591;SHT31;60625;51.212;5.952;2024-01-06T09:02:53;5.29;83.99
72591;SHT31;60625;51.212;5.952;2024-01-06T09:07:53;5.26;84.18
72591;SHT31;60625;51.212;5.952;2024-01-06T09:12:54;5.22;84.42
72591;SHT31;60625;51.212;5.952;2024-01-06T09:17:55;5.16;85.08
72591;SHT31;60625;51.212;5.952;2024-01-06T09:22:55;5.12;85.58
72591;SHT31;60625;51.212;5.952;2024-01-06T09:27:56;5.09;85.84
72591;SHT31;60625;51.212;5.952;2024-01-06T09:32:56;5.02;86.23
72591;SHT31;60625;51.212;5.952;2024-01-06T09:37:58;5.00;86.46
72591;SHT31;60625;51.212;5.952;2024-01-06T09:42:58;4.97;86.46
72591;SHT31;60625;51.212;5.952;2024-01-06T09:47:59;4.96;86.67
72591;SHT31;60625;51.212;5.952;2024-01-06T09:53:15;4.95;86.57
72591;SHT31;60625;51.212;5.952;2024-01-06T09:58:17;4.94;86.57
72591;SHT31;60625;51.212;5.952;2024-01-06T10:03:18;4.88;86.17
72591;SHT31;60625;51.212;5.952;2024-01-06T10:08:18;4.82;85.81
72591;SHT31;60625;51.212;5.952;2024-01-06T10:13:19;4.80;85.75
72591;SHT31;60625;51.212;5.952;2024-01-06T10:18:19;4.82;85.72
72591;SHT31;60625;51.212;5.952;2024-01-06T10:23:22;4.84;85.65
72591;SHT31;60625;51.212;5.952;2024-01-06T10:28:29;4.84;85.58
72591;SHT31;60625;51.212;5.952;2024-01-06T10:33:30;4.80;85.61
72591;SHT31;60625;51.212;5.952;2024-01-06T10:38:33;4.77;85.60
72591;SHT31;60625;51.212;5.952;2024-01-06T10:43:34;4.77;85.51
72591;SHT31;60625;51.212;5.952;2024-01-06T10:48:40;4.78;85.39
72591;SHT31;60625;51.212;5.952;2024-01-06T10:53:44;4.75;85.10
72591;SHT31;60625;51.212;5.952;2024-01-06T10:58:46;4.71;85.09
72591;SHT31;60625;51.212;5.952;2024-01-06T11:03:50;4.73;85.18
72591;SHT31;60625;51.212;5.952;2024-01-06T11:08:52;4.71;85.01
72591;SHT31;60625;51.212;5.952;2024-01-06T11:24:38;4.68;85.00
72591;SHT31;60625;51.212;5.952;2024-01-06T11:29:50;4.66;84.93
72591;SHT31;60625;51.212;5.952;2024-01-06T11:34:54;4.68;84.83
72591;SHT31;60625;51.212;5.952;2024-01-06T11:39:58;4.71;84.83
72591;SHT31;60625;51.212;5.952;2024-01-06T11:45:01;4.68;84.63
72591;SHT31;60625;51.212;5.952;2024-01-06T11:50:06;4.64;84.64
72591;SHT31;60625;51.212;5.952;2024-01-06T11:55:07;4.64;84.79
72591;SHT31;60625;51.212;5.952;2024-01-06T12:00:10;4.60;84.74
72591;SHT31;60625;51.212;5.952;2024-01-06T12:05:15;4.63;84.88
72591;SHT31;60625;51.212;5.952;2024-01-06T12:10:19;4.64;84.86
72591;SHT31;60625;51.212;5.952;2024-01-06T12:15:24;4.62;85.03
72591;SHT31;60625;51.212;5.952;2024-01-06T12:20:25;4.62;84.99
72591;SHT31;60625;51.212;5.952;2024-01-06T12:25:28;4.63;85.01
72591;SHT31;60625;51.212;5.952;2024-01-06T12:30:33;4.60;85.03
72591;SHT31;60625;51.212;5.952;2024-01-06T12:35:35;4.54;85.24
72591;SHT31;60625;51.212;5.952;2024-01-06T12:40:36;4.47;85.39
72591;SHT31;60625;51.212;5.952;2024-01-06T12:45:37;4.49;85.54
72591;SHT31;60625;51.212;5.952;2024-01-06T12:50:38;4.49;85.47
72591;SHT31;60625;51.212;5.952;2024-01-06T12:55:38;4.47;85.46
72591;SHT31;60625;51.212;5.952;2024-01-06T13:00:39;4.49;85.38
72591;SHT31;60625;51.212;5.952;2024-01-06T13:05:40;4.52;85.09
72591;SHT31;60625;51.212;5.952;2024-01-06T13:10:41;4.51;84.75
72591;SHT31;60625;51.212;5.952;2024-01-06T13:15:41;4.51;84.74
72591;SHT31;60625;51.212;5.952;2024-01-06T13:20:42;4.48;84.80
72591;SHT31;60625;51.212;5.952;2024-01-06T13:25:43;4.47;84.72
72591;SHT31;60625;51.212;5.952;2024-01-06T13:30:45;4.51;84.76
72591;SHT31;60625;51.212;5.952;2024-01-06T13:35:46;4.51;84.65
72591;SHT31;60625;51.212;5.952;2024-01-06T13:40:46;4.50;84.42
72591;SHT31;60625;51.212;5.952;2024-01-06T13:45:47;4.47;84.09
72591;SHT31;60625;51.212;5.952;2024-01-06T13:50:48;4.40;83.87
72591;SHT31;60625;51.212;5.952;2024-01-06T13:55:48;4.37;83.98
72591;SHT31;60625;51.212;5.952;2024-01-06T14:00:49;4.36;84.03
72591;SHT31;60625;51.212;5.952;2024-01-06T14:05:50;4.39;84.23
72591;SHT31;60625;51.212;5.952;2024-01-06T14:10:51;4.40;84.03
72591;SHT31;60625;51.212;5.952;2024-01-06T14:15:52;4.38;83.70
72591;SHT31;60625;51.212;5.952;2024-01-06T14:20:52;4.33;83.71
72591;SHT31;60625;51.212;5.952;2024-01-06T14:25:55;4.33;83.97
72591;SHT31;60625;51.212;5.952;2024-01-06T14:30:56;4.30;83.67
72591;SHT31;60625;51.212;5.952;2024-01-06T14:35:56;4.25;83.86
72591;SHT31;60625;51.212;5.952;2024-01-06T14:40:57;4.22;83.87
72591;SHT31;60625;51.212;5.952;2024-01-06T14:45:57;4.21;83.72
72591;SHT31;60625;51.212;5.952;2024-01-06T14:50:58;4.17;83.46
72591;SHT31;60625;51.212;5.952;2024-01-06T14:56:00;4.15;83.47
72591;SHT31;60625;51.212;5.952;2024-01-06T15:01:01;4.11;83.49
72591;SHT31;60625;51.212;5.952;2024-01-06T15:06:01;4.09;83.54
72591;SHT31;60625;51.212;5.952;2024-01-06T15:11:02;4.06;83.54
72591;SHT31;60625;51.212;5.952;2024-01-06T15:16:03;4.01;83.63
72591;SHT31;60625;51.212;5.952;2024-01-06T15:21:05;3.97;83.94
72591;SHT31;60625;51.212;5.952;2024-01-06T15:26:05;3.96;84.00
72591;SHT31;60625;51.212;5.952;2024-01-06T15:31:06;3.95;84.11
72591;SHT31;60625;51.212;5.952;2024-01-06T15:36:07;3.95;84.25
72591;SHT31;60625;51.212;5.952;2024-01-06T15:41:09;3.94;84.15
72591;SHT31;60625;51.212;5.952;2024-01-06T15:46:09;3.92;84.28
72591;SHT31;60625;51.212;5.952;2024-01-06T15:51:09;3.91;84.39
72591;SHT31;60625;51.212;5.952;2024-01-06T15:56:11;3.89;84.43
72591;SHT31;60625;51.212;5.952;2024-01-06T16:01:12;3.88;84.57
72591;SHT31;60625;51.212;5.952;2024-01-06T16:06:12;3.85;84.77
72591;SHT31;60625;51.212;5.952;2024-01-06T16:11:13;3.87;85.00
72591;SHT31;60625;51.212;5.952;2024-01-06T16:16:13;3.87;84.88
72591;SHT31;60625;51.212;5.952;2024-01-06T16:21:22;3.85;84.82
72591;SHT31;60625;51.212;5.952;2024-01-06T16:26:26;3.84;84.75
72591;SHT31;60625;51.212;5.952;2024-01-06T16:31:27;3.85;84.64
72591;SHT31;60625;51.212;5.952;2024-01-06T16:36:27;3.82;84.48
72591;SHT31;60625;51.212;5.952;2024-01-06T16:41:28;3.76;84.55
72591;SHT31;60625;51.212;5.952;2024-01-06T16:46:29;3.75;84.84
72591;SHT31;60625;51.212;5.952;2024-01-06T16:51:29;3.75;84.86
72591;SHT31;60625;51.212;5.952;2024-01-06T16:56:30;3.74;84.90
72591;SHT31;60625;51.212;5.952;2024-01-06T17:01:31;3.72;84.81
72591;SHT31;60625;51.212;5.952;2024-01-06T17:06:31;3.71;84.78
72591;SHT31;60625;51.212;5.952;2024-01-06T17:11:32;3.67;84.65
72591;SHT31;60625;51.212;5.952;2024-01-06T17:16:32;3.66;84.63
72591;SHT31;60625;51.212;5.952;2024-01-06T17:21:34;3.64;84.47
72591;SHT31;60625;51.212;5.952;2024-01-06T17:26:35;3.65;84.34
72591;SHT31;60625;51.212;5.952;2024-01-06T17:31:36;3.66;84.46
72591;SHT31;60625;51.212;5.952;2024-01-06T17:36:37;3.66;84.46
72591;SHT31;60625;51.212;5.952;2024-01-06T17:41:38;3.64;84.64
72591;SHT31;60625;51.212;5.952;2024-01-06T17:46:38;3.62;84.89
72591;SHT31;60625;51.212;5.952;2024-01-06T17:51:39;3.62;85.03
72591;SHT31;60625;51.212;5.952;2024-01-06T17:56:39;3.61;85.06
72591;SHT31;60625;51.212;5.952;2024-01-06T18:01:40;3.57;85.04
72591;SHT31;60625;51.212;5.952;2024-01-06T18:06:41;3.55;85.19
72591;SHT31;60625;51.212;5.952;2024-01-06T18:11:43;3.56;85.29
72591;SHT31;60625;51.212;5.952;2024-01-06T18:16:45;3.57;85.26
72591;SHT31;60625;51.212;5.952;2024-01-06T18:21:46;3.58;85.24
72591;SHT31;60625;51.212;5.952;2024-01-06T18:26:46;3.56;85.24
72591;SHT31;60625;51.212;5.952;2024-01-06T18:31:47;3.53;85.29
72591;SHT31;60625;51.212;5.952;2024-01-06T18:36:49;3.51;85.42
72591;SHT31;60625;51.212;5.952;2024-01-06T18:41:49;3.49;85.58
72591;SHT31;60625;51.212;5.952;2024-01-06T18:46:50;3.48;85.86
72591;SHT31;60625;51.212;5.952;2024-01-06T18:51:51;3.49;86.08
72591;SHT31;60625;51.212;5.952;2024-01-06T18:56:51;3.48;86.08
72591;SHT31;60625;51.212;5.952;2024-01-06T19:01:52;3.44;86.15
72591;SHT31;60625;51.212;5.952;2024-01-06T19:06:52;3.42;86.23
72591;SHT31;60625;51.212;5.952;2024-01-06T19:11:53;3.41;86.21
72591;SHT31;60625;51.212;5.952;2024-01-06T19:16:53;3.41;86.23
72591;SHT31;60625;51.212;5.952;2024-01-06T19:21:54;3.43;86.13
72591;SHT31;60625;51.212;5.952;2024-01-06T19:26:55;3.40;85.79
72591;SHT31;60625;51.212;5.952;2024-01-06T19:31:56;3.39;85.83
72591;SHT31;60625;51.212;5.952;2024-01-06T19:36:57;3.38;85.63
72591;SHT31;60625;51.212;5.952;2024-01-06T19:41:58;3.36;85.89
72591;SHT31;60625;51.212;5.952;2024-01-06T19:46:58;3.34;85.85
72591;SHT31;60625;51.212;5.952;2024-01-06T19:52:00;3.33;85.97
72591;SHT31;60625;51.212;5.952;2024-01-06T19:57:01;3.29;86.02
72591;SHT31;60625;51.212;5.952;2024-01-06T20:02:03;3.24;86.06
72591;SHT31;60625;51.212;5.952;2024-01-06T20:07:04;3.20;86.18
72591;SHT31;60625;51.212;5.952;2024-01-06T20:12:05;3.17;86.11
72591;SHT31;60625;51.212;5.952;2024-01-06T20:17:06;3.17;86.25
72591;SHT31;60625;51.212;5.952;2024-01-06T20:22:09;3.17;86.33
72591;SHT31;60625;51.212;5.952;2024-01-06T20:27:10;3.15;86.41
72591;SHT31;60625;51.212;5.952;2024-01-06T20:32:11;3.12;86.32
72591;SHT31;60625;51.212;5.952;2024-01-06T20:37:11;3.11;86.20
72591;SHT31;60625;51.212;5.952;2024-01-06T20:42:15;3.14;86.11
72591;SHT31;60625;51.212;5.952;2024-01-06T20:47:15;3.12;85.84
72591;SHT31;60625;51.212;5.952;2024-01-06T20:52:16;3.12;85.74
72591;SHT31;60625;51.212;5.952;2024-01-06T20:57:17;3.11;85.67
72591;SHT31;60625;51.212;5.952;2024-01-06T21:02:17;3.12;85.68
72591;SHT31;60625;51.212;5.952;2024-01-06T21:07:20;3.13;85.67
72591;SHT31;60625;51.212;5.952;2024-01-06T21:12:20;3.12;85.58
72591;SHT31;60625;51.212;5.952;2024-01-06T21:17:21;3.09;85.36
72591;SHT31;60625;51.212;5.952;2024-01-06T21:22:21;3.06;85.14
72591;SHT31;60625;51.212;5.952;2024-01-06T21:27:22;3.04;85.29
72591;SHT31;60625;51.212;5.952;2024-01-06T21:32:23;3.05;85.30
72591;SHT31;60625;51.212;5.952;2024-01-06T21:37:24;3.05;85.37
72591;SHT31;60625;51.212;5.952;2024-01-06T21:42:25;3.01;85.21
72591;SHT31;60625;51.212;5.952;2024-01-06T21:47:26;2.97;85.14
72591;SHT31;60625;51.212;5.952;2024-01-06T21:52:26;2.93;85.28
72591;SHT31;60625;51.212;5.952;2024-01-06T21:57:27;2.91;85.14
72591;SHT31;60625;51.212;5.952;2024-01-06T22:02:27;2.88;84.86
72591;SHT31;60625;51.212;5.952;2024-01-06T22:07:28;2.85;84.73
72591;SHT31;60625;51.212;5.952;2024-01-06T22:12:30;2.78;84.68
72591;SHT31;60625;51.212;5.952;2024-01-06T22:17:30;2.71;84.79
72591;SHT31;60625;51.212;5.952;2024-01-06T22:22:31;2.66;85.12
72591;SHT31;60625;51.212;5.952;2024-01-06T22:27:31;2.60;85.32
72591;SHT31;60625;51.212;5.952;2024-01-06T22:32:32;2.50;85.28
72591;SHT31;60625;51.212;5.952;2024-01-06T22:37:33;2.42;85.46
72591;SHT31;60625;51.212;5.952;2024-01-06T22:42:33;2.36;85.65
72591;SHT31;60625;51.212;5.952;2024-01-06T22:47:34;2.31;85.81
72591;SHT31;60625;51.212;5.952;2024-01-06T22:52:34;2.28;86.03
72591;SHT31;60625;51.212;5.952;2024-01-06T22:57:34;2.26;86.21
72591;SHT31;60625;51.212;5.952;2024-01-06T23:02:37;2.25;86.35
72591;SHT31;60625;51.212;5.952;2024-01-06T23:07:37;2.24;86.52
72591;SHT31;60625;51.212;5.952;2024-01-06T23:12:38;2.24;86.61
72591;SHT31;60625;51.212;5.952;2024-01-06T23:17:38;2.25;86.68
72591;SHT31;60625;51.212;5.952;2024-01-06T23:22:39;2.28;86.67
72591;SHT31;60625;51.212;5.952;2024-01-06T23:27:40;2.30;86.79
72591;SHT31;60625;51.212;5.952;2024-01-06T23:32:41;2.31;86.81
72591;SHT31;60625;51.212;5.952;2024-01-06T23:37:42;2.32;86.89
72591;SHT31;60625;51.212;5.952;2024-01-06T23:42:43;2.33;86.95
72591;SHT31;60625;51.212;5.952;2024-01-06T23:47:44;2.37;87.06
72591;SHT31;60625;51.212;5.952;2024-01-06T23:52:44;2.37;86.94
72591;SHT31;60625;51.212;5.952;2024-01-06T23:57:45;2.35;86.92
